createdAt,value
2019-03-04T00:00:03.081Z,1008.5
2019-03-04T00:01:03.622Z,1008.6
2019-03-04T00:02:03.150Z,1008.5
2019-03-04T00:03:03.901Z,1008.5
2019-03-04T00:04:03.375Z,1008.6
2019-03-04T00:05:03.993Z,1008.6
2019-03-04T00:06:03.832Z,1008.7
2019-03-04T00:07:03.896Z,1008.6
2019-03-04T00:08:03.698Z,1008.6
2019-03-04T00:09:03.913Z,1008.6
2019-03-04T00:10:03.716Z,1008.6
2019-03-04T00:11:03.819Z,1008.5
2019-03-04T00:12:03.004Z,1008.5
2019-03-04T00:13:02.749Z,1008.5
2019-03-04T00:14:03.564Z,1008.5
2019-03-04T00:15:03.673Z,1008.5
2019-03-04T00:16:03.554Z,1008.5
2019-03-04T00:17:03.625Z,1008.4
2019-03-04T00:18:03.299Z,1008.5
2019-03-04T00:19:03.448Z,1008.3
2019-03-04T00:20:03.578Z,1008.4
2019-03-04T00:21:03.425Z,1008.3
2019-03-04T00:22:03.481Z,1008.3
2019-03-04T00:23:03.142Z,1008.3
2019-03-04T00:24:03.206Z,1008.2
2019-03-04T00:25:03.094Z,1008.1
2019-03-04T00:26:03.497Z,1008.2
2019-03-04T00:27:03.218Z,1008.2
2019-03-04T00:28:03.341Z,1008.2
2019-03-04T00:29:03.057Z,1008.2
2019-03-04T00:30:03.353Z,1008.2
2019-03-04T00:31:02.813Z,1008.1
2019-03-04T00:32:03.066Z,1008.3
2019-03-04T00:33:03.210Z,1008.1
2019-03-04T00:34:03.236Z,1008.1
2019-03-04T00:35:03.341Z,1008.3
2019-03-04T00:36:03.940Z,1008.3
2019-03-04T00:37:03.612Z,1008.3
2019-03-04T00:38:03.089Z,1008.3
2019-03-04T00:39:03.067Z,1008.3
2019-03-04T00:40:02.966Z,1008.3
2019-03-04T00:41:03.132Z,1008.2
2019-03-04T00:42:03.054Z,1008.2
2019-03-04T00:43:03.761Z,1008.2
2019-03-04T00:44:03.904Z,1008.1
2019-03-04T00:45:04.086Z,1008.1
2019-03-04T00:46:03.642Z,1008.1
2019-03-04T00:47:03.335Z,1008
2019-03-04T00:48:03.933Z,1008.1
2019-03-04T00:49:03.685Z,1008.1
2019-03-04T00:50:04.096Z,1008
2019-03-04T00:51:03.739Z,1008.1
2019-03-04T00:52:03.226Z,1008
2019-03-04T00:53:03.745Z,1008
2019-03-04T00:54:03.712Z,1008
2019-03-04T00:55:03.707Z,1007.7
2019-03-04T00:56:03.394Z,1007.9
2019-03-04T00:57:03.802Z,1007.7
2019-03-04T00:58:03.626Z,1007.6
2019-03-04T00:59:03.595Z,1007.6
2019-03-04T01:00:03.253Z,1007.7
2019-03-04T01:01:03.649Z,1007.7
2019-03-04T01:02:03.124Z,1007.7
2019-03-04T01:03:03.364Z,1007.7
2019-03-04T01:04:03.275Z,1007.7
2019-03-04T01:05:03.230Z,1007.8
2019-03-04T01:06:03.884Z,1007.8
2019-03-04T01:07:03.030Z,1007.7
2019-03-04T01:08:03.305Z,1007.7
2019-03-04T01:09:03.369Z,1007.7
2019-03-04T01:10:03.393Z,1007.6
2019-03-04T01:11:02.982Z,1007.6
2019-03-04T01:12:03.484Z,1007.6
2019-03-04T01:13:02.946Z,1007.6
2019-03-04T01:14:03.110Z,1007.6
2019-03-04T01:15:02.942Z,1007.5
2019-03-04T01:16:02.724Z,1007.7
2019-03-04T01:17:03.912Z,1007.7
2019-03-04T01:18:03.213Z,1007.7
2019-03-04T01:19:03.063Z,1007.7
2019-03-04T01:20:04.184Z,1007.6
2019-03-04T01:21:03.850Z,1007.7
2019-03-04T01:22:02.968Z,1007.7
2019-03-04T01:23:03.045Z,1007.6
2019-03-04T01:24:03.813Z,1007.6
2019-03-04T01:25:03.157Z,1007.6
2019-03-04T01:26:03.856Z,1007.7
2019-03-04T01:27:03.769Z,1007.6
2019-03-04T01:28:03.816Z,1007.6
2019-03-04T01:29:03.917Z,1007.7
2019-03-04T01:30:03.807Z,1007.5
2019-03-04T01:31:03.653Z,1007.6
2019-03-04T01:32:03.588Z,1007.6
2019-03-04T01:33:03.239Z,1007.5
2019-03-04T01:34:03.207Z,1007.5
2019-03-04T01:35:03.540Z,1007.4
2019-03-04T01:36:03.908Z,1007.4
2019-03-04T01:37:03.442Z,1007.4
2019-03-04T01:38:03.859Z,1007.4
2019-03-04T01:39:03.822Z,1007.4
2019-03-04T01:40:03.122Z,1007.4
2019-03-04T01:41:03.609Z,1007.4
2019-03-04T01:42:03.089Z,1007.3
2019-03-04T01:43:03.722Z,1007.3
2019-03-04T01:44:03.752Z,1007.3
2019-03-04T01:45:03.840Z,1007.3
2019-03-04T01:46:03.586Z,1007.2
2019-03-04T01:47:03.848Z,1007.3
2019-03-04T01:48:03.271Z,1007.2
2019-03-04T01:49:03.667Z,1007.3
2019-03-04T01:50:03.421Z,1007.3
2019-03-04T01:51:03.577Z,1007.3
2019-03-04T01:52:03.528Z,1007.3
2019-03-04T01:53:03.471Z,1007.2
2019-03-04T01:54:03.366Z,1007.3
2019-03-04T01:55:03.383Z,1007.2
2019-03-04T01:56:03.033Z,1007.2
2019-03-04T01:57:03.659Z,1007.2
2019-03-04T01:58:03.188Z,1007.3
2019-03-04T01:59:03.227Z,1007.2
2019-03-04T02:00:03.359Z,1007.2
2019-03-04T02:01:03.172Z,1007.2
2019-03-04T02:02:03.289Z,1007.1
2019-03-04T02:03:03.172Z,1007.1
2019-03-04T02:04:02.902Z,1007.1
2019-03-04T02:05:03.135Z,1006.9
2019-03-04T02:06:03.072Z,1007
2019-03-04T02:07:02.803Z,1007
2019-03-04T02:08:03.137Z,1006.9
2019-03-04T02:09:04.048Z,1006.9
2019-03-04T02:10:03.285Z,1007
2019-03-04T02:11:03.018Z,1007
2019-03-04T02:12:03.384Z,1007
2019-03-04T02:13:03.958Z,1007
2019-03-04T02:14:03.915Z,1007
2019-03-04T02:15:03.088Z,1006.9
2019-03-04T02:16:03.662Z,1006.8
2019-03-04T02:17:04.025Z,1006.9
2019-03-04T02:18:03.951Z,1006.8
2019-03-04T02:19:03.945Z,1006.6
2019-03-04T02:20:03.773Z,1006.6
2019-03-04T02:21:03.633Z,1006.6
2019-03-04T02:22:03.720Z,1006.6
2019-03-04T02:23:03.934Z,1006.5
2019-03-04T02:24:03.788Z,1006.6
2019-03-04T02:25:03.921Z,1006.5
2019-03-04T02:26:03.497Z,1006.5
2019-03-04T02:27:03.410Z,1006.4
2019-03-04T02:28:03.475Z,1006.4
2019-03-04T02:29:03.432Z,1006.5
2019-03-04T02:30:03.348Z,1006.4
2019-03-04T02:31:03.944Z,1006.6
2019-03-04T02:32:03.577Z,1006.4
2019-03-04T02:33:03.263Z,1006.4
2019-03-04T02:34:03.411Z,1006.4
2019-03-04T02:35:03.597Z,1006.3
2019-03-04T02:36:03.561Z,1006.3
2019-03-04T02:37:03.212Z,1006.3
2019-03-04T02:38:03.452Z,1006.3
2019-03-04T02:39:03.411Z,1006.3
2019-03-04T02:40:03.481Z,1006.3
2019-03-04T02:41:03.298Z,1006.3
2019-03-04T02:42:03.232Z,1006.3
2019-03-04T02:43:03.043Z,1006.3
2019-03-04T02:44:02.864Z,1006.3
2019-03-04T02:45:03.920Z,1006.4
2019-03-04T02:46:03.234Z,1006.3
2019-03-04T02:47:03.130Z,1006.3
2019-03-04T02:48:03.134Z,1006.2
2019-03-04T02:49:03.331Z,1006.2
2019-03-04T02:50:04.181Z,1006.2
2019-03-04T02:51:03.447Z,1006.2
2019-03-04T02:52:03.138Z,1006.3
2019-03-04T02:53:02.946Z,1006.2
2019-03-04T02:54:04.461Z,1006.2
2019-03-04T02:55:02.958Z,1006.1
2019-03-04T02:56:04.012Z,1006.1
2019-03-04T02:57:03.910Z,1006.2
2019-03-04T02:58:03.878Z,1006.1
2019-03-04T02:59:03.569Z,1006.2
2019-03-04T03:00:03.839Z,1006.1
2019-03-04T03:01:03.567Z,1006.1
2019-03-04T03:02:03.830Z,1006.1
2019-03-04T03:03:03.725Z,1006
2019-03-04T03:04:03.657Z,1005.9
2019-03-04T03:05:03.646Z,1006
2019-03-04T03:06:03.495Z,1006.1
2019-03-04T03:07:03.244Z,1005.9
2019-03-04T03:08:03.197Z,1005.9
2019-03-04T03:09:03.239Z,1005.9
2019-03-04T03:10:03.238Z,1005.9
2019-03-04T03:11:03.515Z,1005.9
2019-03-04T03:12:03.371Z,1005.9
2019-03-04T03:13:03.688Z,1005.8
2019-03-04T03:14:03.516Z,1005.8
2019-03-04T03:15:03.718Z,1005.7
2019-03-04T03:16:03.527Z,1005.8
2019-03-04T03:17:03.372Z,1005.7
2019-03-04T03:18:03.506Z,1005.7
2019-03-04T03:19:03.362Z,1005.7
2019-03-04T03:20:03.398Z,1005.7
2019-03-04T03:21:02.851Z,1005.7
2019-03-04T03:22:03.152Z,1005.6
2019-03-04T03:23:03.805Z,1005.6
2019-03-04T03:24:03.111Z,1005.5
2019-03-04T03:25:04.168Z,1005.7
2019-03-04T03:26:03.174Z,1005.6
2019-03-04T03:27:03.110Z,1005.5
2019-03-04T03:28:02.937Z,1005.5
2019-03-04T03:29:03.150Z,1005.5
2019-03-04T03:30:03.187Z,1005.5
2019-03-04T03:31:03.144Z,1005.4
2019-03-04T03:32:03.880Z,1005.5
2019-03-04T03:33:03.337Z,1005.3
2019-03-04T03:34:03.814Z,1005.4
2019-03-04T03:35:09.532Z,1005.5
2019-03-04T03:36:03.891Z,1005.4
2019-03-04T03:37:03.454Z,1005.4
2019-03-04T03:38:03.674Z,1005.4
2019-03-04T03:39:03.999Z,1005.3
2019-03-04T03:40:03.711Z,1005.3
2019-03-04T03:41:03.680Z,1005.3
2019-03-04T03:42:03.567Z,1005.3
2019-03-04T03:43:03.477Z,1005.3
2019-03-04T03:44:03.285Z,1005.3
2019-03-04T03:45:03.541Z,1005.3
2019-03-04T03:46:03.470Z,1005.2
2019-03-04T03:47:03.149Z,1005.2
2019-03-04T03:48:03.583Z,1005.2
2019-03-04T03:49:03.113Z,1005.1
2019-03-04T03:50:03.439Z,1005.2
2019-03-04T03:51:04.047Z,1005.2
2019-03-04T03:52:03.249Z,1005.2
2019-03-04T03:53:03.126Z,1005.2
2019-03-04T03:54:03.165Z,1005.2
2019-03-04T03:55:03.118Z,1005.2
2019-03-04T03:56:03.400Z,1005.1
2019-03-04T03:57:03.309Z,1005.1
2019-03-04T03:58:03.002Z,1005.1
2019-03-04T03:59:02.796Z,1005
2019-03-04T04:00:03.238Z,1005.1
2019-03-04T04:01:03.249Z,1005
2019-03-04T04:02:03.315Z,1005.1
2019-03-04T04:03:03.986Z,1005
2019-03-04T04:04:03.072Z,1005
2019-03-04T04:05:03.986Z,1005
2019-03-04T04:06:03.841Z,1005
2019-03-04T04:07:03.999Z,1004.9
2019-03-04T04:08:03.939Z,1005
2019-03-04T04:09:04.060Z,1004.9
2019-03-04T04:10:02.954Z,1004.9
2019-03-04T04:11:03.926Z,1004.9
2019-03-04T04:12:03.929Z,1004.8
2019-03-04T04:13:03.714Z,1004.9
2019-03-04T04:14:03.670Z,1005
2019-03-04T04:15:03.833Z,1004.9
2019-03-04T04:16:03.641Z,1004.7
2019-03-04T04:17:02.817Z,1004.7
2019-03-04T04:18:03.193Z,1004.8
2019-03-04T04:19:03.469Z,1004.9
2019-03-04T04:20:03.454Z,1004.8
2019-03-04T04:21:03.523Z,1004.8
2019-03-04T04:22:03.431Z,1004.8
2019-03-04T04:23:03.261Z,1004.8
2019-03-04T04:24:03.760Z,1004.8
2019-03-04T04:25:03.357Z,1004.8
2019-03-04T04:26:03.313Z,1004.8
2019-03-04T04:27:03.339Z,1004.8
2019-03-04T04:28:03.523Z,1004.8
2019-03-04T04:29:03.638Z,1004.8
2019-03-04T04:30:02.990Z,1004.8
2019-03-04T04:31:03.369Z,1004.8
2019-03-04T04:32:03.407Z,1004.8
2019-03-04T04:33:03.278Z,1004.8
2019-03-04T04:34:03.187Z,1004.7
2019-03-04T04:35:03.394Z,1004.8
2019-03-04T04:36:02.868Z,1004.7
2019-03-04T04:37:02.989Z,1004.7
2019-03-04T04:38:03.071Z,1004.6
2019-03-04T04:39:03.081Z,1004.6
2019-03-04T04:40:03.253Z,1004.6
2019-03-04T04:41:03.749Z,1004.6
2019-03-04T04:42:03.146Z,1004.6
2019-03-04T04:43:03.825Z,1004.6
2019-03-04T04:44:03.631Z,1004.6
2019-03-04T04:45:03.080Z,1004.6
2019-03-04T04:46:03.170Z,1004.6
2019-03-04T04:47:03.657Z,1004.6
2019-03-04T04:48:03.820Z,1004.6
2019-03-04T04:49:03.661Z,1004.6
2019-03-04T04:50:03.677Z,1004.6
2019-03-04T04:51:03.603Z,1004.6
2019-03-04T04:52:03.652Z,1004.6
2019-03-04T04:53:03.643Z,1004.5
2019-03-04T04:54:03.622Z,1004.5
2019-03-04T04:55:03.797Z,1004.5
2019-03-04T04:56:03.570Z,1004.4
2019-03-04T04:57:03.280Z,1004.5
2019-03-04T04:58:03.587Z,1004.5
2019-03-04T04:59:03.392Z,1004.4
2019-03-04T05:00:03.451Z,1004.5
2019-03-04T05:01:03.212Z,1004.4
2019-03-04T05:02:03.455Z,1004.4
2019-03-04T05:03:03.441Z,1004.4
2019-03-04T05:04:03.057Z,1004.4
2019-03-04T05:05:03.028Z,1004.5
2019-03-04T05:06:03.310Z,1004.4
2019-03-04T05:07:03.349Z,1004.3
2019-03-04T05:08:03.729Z,1004.3
2019-03-04T05:09:03.542Z,1004.3
2019-03-04T05:10:03.304Z,1004.3
2019-03-04T05:11:03.370Z,1004.3
2019-03-04T05:12:03.054Z,1004.3
2019-03-04T05:13:02.742Z,1004.3
2019-03-04T05:14:03.338Z,1004.3
2019-03-04T05:15:03.339Z,1004.3
2019-03-04T05:16:03.151Z,1004.3
2019-03-04T05:17:03.223Z,1004.3
2019-03-04T05:18:03.388Z,1004.2
2019-03-04T05:19:03.041Z,1004.2
2019-03-04T05:20:03.889Z,1004.2
2019-03-04T05:21:03.723Z,1004.2
2019-03-04T05:22:03.105Z,1004.2
2019-03-04T05:23:04.157Z,1004.2
2019-03-04T05:24:02.625Z,1004.2
2019-03-04T05:25:04.466Z,1004.2
2019-03-04T05:26:03.735Z,1004.2
2019-03-04T05:27:02.953Z,1004.2
2019-03-04T05:28:03.533Z,1004.2
2019-03-04T05:29:03.612Z,1004.2
2019-03-04T05:30:03.252Z,1004.2
2019-03-04T05:31:03.801Z,1004.2
2019-03-04T05:32:03.290Z,1004.2
2019-03-04T05:33:03.492Z,1004.2
2019-03-04T05:34:03.519Z,1004.2
2019-03-04T05:35:03.529Z,1004.2
2019-03-04T05:36:03.512Z,1004.2
2019-03-04T05:37:03.145Z,1004.2
2019-03-04T05:38:03.523Z,1004.2
2019-03-04T05:39:03.022Z,1004.2
2019-03-04T05:40:03.191Z,1004.2
2019-03-04T05:41:02.921Z,1004.2
2019-03-04T05:42:04.110Z,1004.2
2019-03-04T05:43:03.014Z,1004.2
2019-03-04T05:44:02.996Z,1004.2
2019-03-04T05:45:03.223Z,1004.2
2019-03-04T05:46:03.793Z,1004.2
2019-03-04T05:47:02.997Z,1004.2
2019-03-04T05:48:03.991Z,1004.2
2019-03-04T05:49:03.758Z,1004.2
2019-03-04T05:50:03.571Z,1004.2
2019-03-04T05:51:03.445Z,1004.2
2019-03-04T05:52:03.421Z,1004.2
2019-03-04T05:53:03.747Z,1004.2
2019-03-04T05:54:03.053Z,1004.2
2019-03-04T05:55:03.724Z,1003.4
2019-03-04T05:56:03.127Z,1003.4
2019-03-04T05:57:03.601Z,1003.4
2019-03-04T05:58:03.480Z,1003.4
2019-03-04T05:59:03.264Z,1003.4
2019-03-04T06:00:03.496Z,1003.4
2019-03-04T06:01:03.508Z,1003.4
2019-03-04T06:02:03.565Z,1003.4
2019-03-04T06:03:03.456Z,1003.4
2019-03-04T06:04:03.513Z,1003.4
2019-03-04T06:05:03.341Z,1003.4
2019-03-04T06:06:03.293Z,1003.1
2019-03-04T06:07:03.295Z,1003.1
2019-03-04T06:08:03.193Z,1003.1
2019-03-04T06:09:03.156Z,1003.1
2019-03-04T06:10:03.442Z,1003.2
2019-03-04T06:11:03.236Z,1003.2
2019-03-04T06:12:03.012Z,1003.2
2019-03-04T06:13:02.785Z,1003.2
2019-03-04T06:14:03.620Z,1003.2
2019-03-04T06:15:03.304Z,1003.3
2019-03-04T06:16:03.410Z,1003.2
2019-03-04T06:17:03.105Z,1003.2
2019-03-04T06:18:02.952Z,1003.2
2019-03-04T06:19:03.449Z,1003.1
2019-03-04T06:20:02.786Z,1003.1
2019-03-04T06:21:02.982Z,1003.1
2019-03-04T06:22:03.952Z,1003.2
2019-03-04T06:23:03.308Z,1003
2019-03-04T06:24:03.960Z,1002.9
2019-03-04T06:25:03.370Z,1002.9
2019-03-04T06:26:03.863Z,1002.9
2019-03-04T06:27:02.935Z,1002.9
2019-03-04T06:28:03.883Z,1003
2019-03-04T06:29:03.005Z,1003
2019-03-04T06:30:03.932Z,1003
2019-03-04T06:31:03.870Z,1002.9
2019-03-04T06:32:03.033Z,1002.8
2019-03-04T06:33:02.886Z,1002.7
2019-03-04T06:34:03.578Z,1002.8
2019-03-04T06:35:03.752Z,1002.8
2019-03-04T06:36:03.698Z,1002.9
2019-03-04T06:37:03.571Z,1002.9
2019-03-04T06:38:03.860Z,1002.9
2019-03-04T06:39:03.523Z,1002.9
2019-03-04T06:40:03.837Z,1002.8
2019-03-04T06:41:03.447Z,1002.8
2019-03-04T06:42:03.526Z,1002.8
2019-03-04T06:43:03.069Z,1002.8
2019-03-04T06:44:03.593Z,1002.8
2019-03-04T06:45:03.669Z,1002.8
2019-03-04T06:46:03.080Z,1002.9
2019-03-04T06:47:03.346Z,1002.8
2019-03-04T06:48:03.519Z,1002.8
2019-03-04T06:49:03.456Z,1002.8
2019-03-04T06:50:03.323Z,1002.8
2019-03-04T06:51:03.245Z,1002.7
2019-03-04T06:52:02.970Z,1002.8
2019-03-04T06:53:03.450Z,1002.7
2019-03-04T06:54:03.423Z,1002.7
2019-03-04T06:55:03.605Z,1002.6
2019-03-04T06:56:03.301Z,1002.6
2019-03-04T06:57:03.366Z,1002.5
2019-03-04T06:58:03.906Z,1002.4
2019-03-04T06:59:03.157Z,1002.3
2019-03-04T07:00:03.089Z,1002.4
2019-03-04T07:01:03.054Z,1002.4
2019-03-04T07:02:02.974Z,1002.3
2019-03-04T07:03:02.893Z,1002.4
2019-03-04T07:04:03.121Z,1002.3
2019-03-04T07:05:03.433Z,1002.3
2019-03-04T07:06:02.896Z,1002.3
2019-03-04T07:07:03.016Z,1002.2
2019-03-04T07:08:02.973Z,1002.3
2019-03-04T07:09:03.723Z,1002.3
2019-03-04T07:10:04.052Z,1002
2019-03-04T07:11:03.015Z,1002
2019-03-04T07:12:03.194Z,1002
2019-03-04T07:13:03.411Z,1002
2019-03-04T07:14:03.259Z,1001.9
2019-03-04T07:15:04.064Z,1001.7
2019-03-04T07:16:03.531Z,1001.9
2019-03-04T07:17:03.081Z,1001.8
2019-03-04T07:18:03.419Z,1001.7
2019-03-04T07:19:03.846Z,1001.5
2019-03-04T07:20:03.229Z,1001.5
2019-03-04T07:21:03.854Z,1001.4
2019-03-04T07:22:03.715Z,1001.3
2019-03-04T07:23:03.947Z,1001.2
2019-03-04T07:24:03.913Z,1001.2
2019-03-04T07:25:03.589Z,1001.2
2019-03-04T07:26:03.662Z,1001.2
2019-03-04T07:27:03.961Z,1001.1
2019-03-04T07:28:03.715Z,1001
2019-03-04T07:29:03.865Z,1001.1
2019-03-04T07:30:03.545Z,1001
2019-03-04T07:31:03.779Z,1001
2019-03-04T07:32:03.580Z,1001
2019-03-04T07:33:04.059Z,1001
2019-03-04T07:34:03.432Z,1001
2019-03-04T07:35:03.547Z,1000.9
2019-03-04T07:36:03.463Z,1000.9
2019-03-04T07:37:03.387Z,1000.8
2019-03-04T07:38:03.514Z,1000.8
2019-03-04T07:39:03.246Z,1000.7
2019-03-04T07:40:03.324Z,1000.7
2019-03-04T07:41:02.902Z,1000.7
2019-03-04T07:42:03.469Z,1000.7
2019-03-04T07:43:03.192Z,1000.6
2019-03-04T07:44:03.325Z,1000.6
2019-03-04T07:45:03.238Z,1000.8
2019-03-04T07:46:03.234Z,1000.7
2019-03-04T07:47:03.200Z,1000.6
2019-03-04T07:48:03.922Z,1000.6
2019-03-04T07:49:03.113Z,1000.6
2019-03-04T07:50:03.609Z,1000.5
2019-03-04T07:51:03.192Z,1000.4
2019-03-04T07:52:03.640Z,1000.4
2019-03-04T07:53:02.981Z,1000.4
2019-03-04T07:54:03.970Z,1000.3
2019-03-04T07:55:03.045Z,1000.2
2019-03-04T07:56:02.710Z,1000.2
2019-03-04T07:57:04.003Z,1000.2
2019-03-04T07:58:03.582Z,1000.2
2019-03-04T07:59:04.058Z,1000
2019-03-04T08:00:03.814Z,1000.1
2019-03-04T08:01:02.851Z,1000.1
2019-03-04T08:02:02.947Z,999.9
2019-03-04T08:03:03.693Z,999.9
2019-03-04T08:04:02.923Z,999.7
2019-03-04T08:05:03.659Z,999.7
2019-03-04T08:06:04.001Z,999.7
2019-03-04T08:07:03.759Z,999.7
2019-03-04T08:08:03.671Z,999.7
2019-03-04T08:09:03.492Z,999.7
2019-03-04T08:10:03.811Z,999.7
2019-03-04T08:11:03.452Z,999.6
2019-03-04T08:12:03.373Z,999.6
2019-03-04T08:13:03.823Z,999.5
2019-03-04T08:14:03.704Z,999.5
2019-03-04T08:15:03.523Z,999.5
2019-03-04T08:16:04.034Z,999.5
2019-03-04T08:17:03.359Z,999.4
2019-03-04T08:18:03.087Z,999.4
2019-03-04T08:19:03.209Z,999.5
2019-03-04T08:20:03.330Z,999.6
2019-03-04T08:21:03.258Z,999.6
2019-03-04T08:22:03.252Z,999.5
2019-03-04T08:23:03.054Z,999.4
2019-03-04T08:24:02.972Z,999.5
2019-03-04T08:25:03.472Z,999.4
2019-03-04T08:26:03.472Z,999.4
2019-03-04T08:27:03.202Z,999.3
2019-03-04T08:28:03.132Z,999.3
2019-03-04T08:29:02.941Z,999.3
2019-03-04T08:30:03.150Z,999.3
2019-03-04T08:31:03.959Z,999.4
2019-03-04T08:32:03.598Z,999.3
2019-03-04T08:33:03.070Z,999.3
2019-03-04T08:34:03.093Z,999.2
2019-03-04T08:35:03.036Z,999.3
2019-03-04T08:36:03.254Z,999.3
2019-03-04T08:37:03.902Z,999.4
2019-03-04T08:38:03.159Z,999.2
2019-03-04T08:39:03.851Z,999.2
2019-03-04T08:40:03.689Z,999
2019-03-04T08:41:03.651Z,999
2019-03-04T08:42:03.522Z,999
2019-03-04T08:43:03.469Z,999.1
2019-03-04T08:44:03.428Z,999.1
2019-03-04T08:45:03.741Z,998.9
2019-03-04T08:46:03.901Z,998.9
2019-03-04T08:47:03.607Z,998.9
2019-03-04T08:48:03.053Z,999
2019-03-04T08:49:03.732Z,999.1
2019-03-04T08:50:03.475Z,999
2019-03-04T08:51:03.491Z,999.1
2019-03-04T08:52:03.397Z,999
2019-03-04T08:53:03.215Z,998.9
2019-03-04T08:54:02.958Z,998.8
2019-03-04T08:55:03.251Z,998.7
2019-03-04T08:56:03.347Z,998.8
2019-03-04T08:57:04.683Z,998.8
2019-03-04T08:58:02.969Z,998.8
2019-03-04T08:59:03.204Z,998.9
2019-03-04T09:00:03.067Z,998.8
2019-03-04T09:01:03.972Z,998.9
2019-03-04T09:02:02.953Z,998.9
2019-03-04T09:03:03.282Z,998.9
2019-03-04T09:04:02.703Z,999
2019-03-04T09:05:02.912Z,999
2019-03-04T09:06:03.982Z,998.9
2019-03-04T09:07:04.477Z,999
2019-03-04T09:08:02.751Z,998.9
2019-03-04T09:09:03.961Z,998.8
2019-03-04T09:10:03.859Z,998.7
2019-03-04T09:11:03.174Z,998.7
2019-03-04T09:12:03.785Z,998.9
2019-03-04T09:13:03.894Z,998.7
2019-03-04T09:14:03.684Z,998.7
2019-03-04T09:15:03.817Z,998.8
2019-03-04T09:16:03.707Z,998.8
2019-03-04T09:17:03.847Z,998.8
2019-03-04T09:18:03.602Z,998.8
2019-03-04T09:19:03.417Z,998.6
2019-03-04T09:20:03.511Z,998.7
2019-03-04T09:21:03.326Z,998.6
2019-03-04T09:22:02.967Z,998.7
2019-03-04T09:23:03.140Z,998.9
2019-03-04T09:24:03.594Z,999.1
2019-03-04T09:25:03.323Z,999
2019-03-04T09:26:02.910Z,999
2019-03-04T09:27:03.467Z,999.2
2019-03-04T09:28:03.550Z,999.2
2019-03-04T09:29:03.208Z,999.3
2019-03-04T09:30:03.168Z,999.3
2019-03-04T09:31:03.849Z,999.2
2019-03-04T09:32:03.137Z,999.2
2019-03-04T09:33:03.000Z,999.3
2019-03-04T09:34:03.097Z,999.3
2019-03-04T09:35:03.325Z,999.3
2019-03-04T09:36:02.848Z,999.3
2019-03-04T09:37:03.819Z,999.3
2019-03-04T09:38:03.391Z,999.2
2019-03-04T09:39:03.485Z,999.4
2019-03-04T09:40:03.402Z,999.3
2019-03-04T09:41:03.419Z,999.4
2019-03-04T09:42:03.214Z,999.2
2019-03-04T09:43:02.840Z,999.2
2019-03-04T09:44:03.201Z,999.2
2019-03-04T09:45:03.212Z,999.1
2019-03-04T09:46:03.999Z,999.2
2019-03-04T09:47:03.931Z,999.4
2019-03-04T09:48:03.232Z,999.4
2019-03-04T09:49:03.982Z,999.3
2019-03-04T09:50:03.820Z,999.4
2019-03-04T09:51:03.869Z,999.4
2019-03-04T09:52:03.713Z,999.4
2019-03-04T09:53:03.515Z,999.5
2019-03-04T09:54:03.854Z,999.3
2019-03-04T09:55:03.715Z,999.3
2019-03-04T09:56:03.813Z,999.2
2019-03-04T09:57:03.313Z,999.3
2019-03-04T09:58:03.814Z,999.3
2019-03-04T09:59:03.573Z,999.2
2019-03-04T10:00:03.894Z,999.3
2019-03-04T10:01:03.241Z,999.3
2019-03-04T10:02:03.283Z,999.3
2019-03-04T10:03:03.363Z,999.2
2019-03-04T10:04:02.221Z,999.1
2019-03-04T10:05:03.655Z,999.2
2019-03-04T10:06:03.230Z,999.2
2019-03-04T10:07:03.176Z,999.2
2019-03-04T10:08:03.811Z,999.2
2019-03-04T10:09:03.280Z,999.3
2019-03-04T10:10:03.339Z,999.2
2019-03-04T10:11:03.367Z,999.3
2019-03-04T10:12:03.360Z,999.2
2019-03-04T10:13:03.402Z,999.1
2019-03-04T10:14:03.090Z,999.2
2019-03-04T10:15:09.486Z,999.2
2019-03-04T10:16:03.056Z,999.2
2019-03-04T10:17:03.182Z,999.3
2019-03-04T10:18:04.145Z,999.4
2019-03-04T10:19:02.685Z,999.2
2019-03-04T10:20:02.838Z,999.4
2019-03-04T10:21:03.765Z,999.4
2019-03-04T10:22:03.494Z,999.5
2019-03-04T10:23:04.067Z,999.4
2019-03-04T10:24:03.794Z,999.5
2019-03-04T10:25:03.775Z,999.5
2019-03-04T10:26:03.141Z,999.5
2019-03-04T10:27:03.960Z,999.4
2019-03-04T10:28:03.843Z,999.5
2019-03-04T10:29:03.730Z,999.5
2019-03-04T10:30:03.812Z,999.5
2019-03-04T10:31:03.674Z,999.6
2019-03-04T10:32:03.614Z,999.6
2019-03-04T10:33:03.741Z,999.5
2019-03-04T10:34:03.648Z,999.4
2019-03-04T10:35:03.691Z,999.3
2019-03-04T10:36:03.435Z,999.5
2019-03-04T10:37:03.594Z,999.4
2019-03-04T10:38:03.224Z,999.4
2019-03-04T10:39:03.370Z,999.4
2019-03-04T10:40:03.392Z,999.6
2019-03-04T10:41:03.334Z,999.4
2019-03-04T10:42:03.342Z,999.4
2019-03-04T10:43:03.464Z,999.4
2019-03-04T10:44:02.944Z,999.4
2019-03-04T10:45:03.995Z,999.3
2019-03-04T10:46:03.184Z,999.3
2019-03-04T10:47:03.921Z,999.4
2019-03-04T10:48:03.977Z,999.3
2019-03-04T10:49:03.614Z,999.3
2019-03-04T10:50:03.136Z,999.3
2019-03-04T10:51:03.266Z,999.3
2019-03-04T10:52:03.922Z,999.2
2019-03-04T10:53:03.903Z,999.2
2019-03-04T10:54:03.895Z,999.1
2019-03-04T10:55:03.721Z,999.1
2019-03-04T10:56:03.536Z,999.1
2019-03-04T10:57:04.005Z,999.3
2019-03-04T10:58:03.687Z,999.4
2019-03-04T10:59:03.519Z,999.3
2019-03-04T11:00:03.622Z,999.4
2019-03-04T11:01:03.755Z,999.4
2019-03-04T11:02:03.523Z,999.2
2019-03-04T11:03:03.467Z,999.4
2019-03-04T11:04:03.531Z,999.2
2019-03-04T11:05:03.519Z,999.4
2019-03-04T11:06:03.325Z,999.4
2019-03-04T11:07:03.174Z,999.2
2019-03-04T11:08:03.270Z,999.2
2019-03-04T11:09:03.857Z,999
2019-03-04T11:10:03.193Z,999.1
2019-03-04T11:11:03.831Z,999.3
2019-03-04T11:12:03.071Z,999.2
2019-03-04T11:13:03.151Z,999.2
2019-03-04T11:14:03.682Z,999.4
2019-03-04T11:15:03.513Z,999.4
2019-03-04T11:16:02.712Z,999.4
2019-03-04T11:17:03.686Z,999.4
2019-03-04T11:18:03.560Z,999.5
2019-03-04T11:19:03.630Z,999.4
2019-03-04T11:20:03.663Z,999.4
2019-03-04T11:21:03.666Z,999.3
2019-03-04T11:22:03.477Z,999.4
2019-03-04T11:23:03.751Z,999.5
2019-03-04T11:24:03.450Z,999.4
2019-03-04T11:25:03.759Z,999.3
2019-03-04T11:26:02.996Z,999.2
2019-03-04T11:27:03.275Z,999.3
2019-03-04T11:28:03.395Z,999.2
2019-03-04T11:29:03.242Z,999.2
2019-03-04T11:30:04.053Z,999.3
2019-03-04T11:31:03.178Z,999.5
2019-03-04T11:32:03.221Z,999.4
2019-03-04T11:33:03.104Z,999.4
2019-03-04T11:34:03.027Z,999.4
2019-03-04T11:35:03.139Z,999.7
2019-03-04T11:36:03.231Z,999.8
2019-03-04T11:37:03.933Z,999.7
2019-03-04T11:38:03.070Z,999.7
2019-03-04T11:39:03.883Z,999.9
2019-03-04T11:40:03.974Z,999.9
2019-03-04T11:41:03.765Z,1000
2019-03-04T11:42:03.678Z,1000.1
2019-03-04T11:43:03.674Z,1000.2
2019-03-04T11:44:05.268Z,1000.3
2019-03-04T11:45:03.896Z,1000.4
2019-03-04T11:46:03.642Z,1000.4
2019-03-04T11:47:03.279Z,1000.4
2019-03-04T11:48:03.653Z,1000.5
2019-03-04T11:49:03.738Z,1000.7
2019-03-04T11:50:03.624Z,1000.6
2019-03-04T11:51:03.527Z,1000.8
2019-03-04T11:52:03.577Z,1000.8
2019-03-04T11:53:03.809Z,1000.9
2019-03-04T11:54:03.472Z,1001
2019-03-04T11:55:03.259Z,1001
2019-03-04T11:56:03.301Z,1001
2019-03-04T11:57:03.232Z,1000.9
2019-03-04T11:58:03.551Z,1001
2019-03-04T11:59:03.075Z,1001.1
2019-03-04T12:00:03.512Z,1001
2019-03-04T12:01:03.219Z,1001.1
2019-03-04T12:02:03.498Z,1001
2019-03-04T12:03:03.312Z,1001
2019-03-04T12:04:03.168Z,1001
2019-03-04T12:05:03.247Z,1001
2019-03-04T12:06:03.293Z,1001
2019-03-04T12:07:03.236Z,1001
2019-03-04T12:08:03.025Z,1000.9
2019-03-04T12:09:03.149Z,1001
2019-03-04T12:10:03.113Z,1001.1
2019-03-04T12:11:03.306Z,1001.2
2019-03-04T12:12:02.987Z,1001.3
2019-03-04T12:13:04.120Z,1001.2
2019-03-04T12:14:03.735Z,1001.2
2019-03-04T12:15:03.516Z,1001.4
2019-03-04T12:16:03.945Z,1001.2
2019-03-04T12:17:03.852Z,1001.1
2019-03-04T12:18:03.493Z,1001.2
2019-03-04T12:19:03.795Z,1001.2
2019-03-04T12:20:04.019Z,1001.4
2019-03-04T12:21:03.585Z,1001.2
2019-03-04T12:22:03.173Z,1001.2
2019-03-04T12:23:03.453Z,1001.3
2019-03-04T12:24:03.829Z,1001.2
2019-03-04T12:25:03.507Z,1001
2019-03-04T12:26:03.537Z,1000.9
2019-03-04T12:27:03.815Z,1001
2019-03-04T12:28:03.079Z,1001
2019-03-04T12:29:03.443Z,1001.2
2019-03-04T12:30:03.519Z,1001.1
2019-03-04T12:31:03.750Z,1001
2019-03-04T12:32:03.164Z,1001
2019-03-04T12:33:03.399Z,1000.9
2019-03-04T12:34:03.113Z,1001
2019-03-04T12:35:03.577Z,1001
2019-03-04T12:36:03.354Z,1001
2019-03-04T12:37:03.472Z,1001.1
2019-03-04T12:38:03.393Z,1000.8
2019-03-04T12:39:03.192Z,1001